sensor_id;sensor_type;location;lat;lon;timestamp;temperature;humidity
47779;DHT22;33538;48.432;11.350;2023-02-11T00:01:06;-1.40;97.90
47779;DHT22;33538;48.432;11.350;2023-02-11T00:03:33;-1.30;97.80
47779;DHT22;33538;48.432;11.350;2023-02-11T00:06:02;-1.40;97.60
47779;DHT22;33538;48.432;11.350;2023-02-11T00:08:30;-1.50;97.50
47779;DHT22;33538;48.432;11.350;2023-02-11T00:10:57;-1.50;97.70
47779;DHT22;33538;48.432;11.350;2023-02-11T00:13:25;-1.50;97.70
47779;DHT22;33538;48.432;11.350;2023-02-11T00:15:53;-1.50;98.40
47779;DHT22;33538;48.432;11.350;2023-02-11T00:18:21;-1.60;98.30
47779;DHT22;33538;48.432;11.350;2023-02-11T00:20:48;-1.60;98.60
47779;DHT22;33538;48.432;11.350;2023-02-11T00:23:14;-1.60;98.70
47779;DHT22;33538;48.432;11.350;2023-02-11T00:25:42;-1.60;98.60
47779;DHT22;33538;48.432;11.350;2023-02-11T00:28:10;-1.60;99.10
47779;DHT22;33538;48.432;11.350;2023-02-11T00:30:39;-1.70;99.90
47779;DHT22;33538;48.432;11.350;2023-02-11T00:33:05;-1.70;99.90
47779;DHT22;33538;48.432;11.350;2023-02-11T00:35:32;-1.70;99.90
47779;DHT22;33538;48.432;11.350;2023-02-11T00:37:59;-1.50;99.90
47779;DHT22;33538;48.432;11.350;2023-02-11T00:40:26;-1.60;99.90
47779;DHT22;33538;48.432;11.350;2023-02-11T00:42:52;-1.70;99.90
47779;DHT22;33538;48.432;11.350;2023-02-11T00:45:19;-1.60;99.20
47779;DHT22;33538;48.432;11.350;2023-02-11T00:47:47;-1.60;98.70
47779;DHT22;33538;48.432;11.350;2023-02-11T00:50:14;-1.60;98.50
47779;DHT22;33538;48.432;11.350;2023-02-11T00:52:41;-1.60;98.20
47779;DHT22;33538;48.432;11.350;2023-02-11T00:55:08;-1.70;98.50
47779;DHT22;33538;48.432;11.350;2023-02-11T00:57:35;-1.60;99.00
47779;DHT22;33538;48.432;11.350;2023-02-11T01:00:02;-1.60;99.00
47779;DHT22;33538;48.432;11.350;2023-02-11T01:02:29;-1.60;98.50
47779;DHT22;33538;48.432;11.350;2023-02-11T01:04:58;-1.50;97.80
47779;DHT22;33538;48.432;11.350;2023-02-11T01:07:24;-1.50;97.90
47779;DHT22;33538;48.432;11.350;2023-02-11T01:09:51;-1.60;98.20
47779;DHT22;33538;48.432;11.350;2023-02-11T01:12:18;-1.60;97.90
47779;DHT22;33538;48.432;11.350;2023-02-11T01:14:45;-1.60;97.40
47779;DHT22;33538;48.432;11.350;2023-02-11T01:17:11;-1.60;97.30
47779;DHT22;33538;48.432;11.350;2023-02-11T01:19:38;-1.60;96.80
47779;DHT22;33538;48.432;11.350;2023-02-11T01:22:06;-1.70;97.00
47779;DHT22;33538;48.432;11.350;2023-02-11T01:24:33;-1.70;97.20
47779;DHT22;33538;48.432;11.350;2023-02-11T01:27:00;-1.70;97.20
47779;DHT22;33538;48.432;11.350;2023-02-11T01:29:26;-1.70;97.40
47779;DHT22;33538;48.432;11.350;2023-02-11T01:31:53;-1.90;98.30
47779;DHT22;33538;48.432;11.350;2023-02-11T01:34:20;-1.80;98.70
47779;DHT22;33538;48.432;11.350;2023-02-11T01:36:47;-1.80;97.80
47779;DHT22;33538;48.432;11.350;2023-02-11T01:39:15;-1.80;97.50
47779;DHT22;33538;48.432;11.350;2023-02-11T01:41:41;-1.80;97.50
47779;DHT22;33538;48.432;11.350;2023-02-11T01:44:26;-1.80;97.60
47779;DHT22;33538;48.432;11.350;2023-02-11T01:46:53;-1.80;98.30
47779;DHT22;33538;48.432;11.350;2023-02-11T01:49:23;-1.80;97.90
47779;DHT22;33538;48.432;11.350;2023-02-11T01:51:54;-1.80;97.50
47779;DHT22;33538;48.432;11.350;2023-02-11T01:54:25;-1.80;97.20
47779;DHT22;33538;48.432;11.350;2023-02-11T01:56:55;-1.80;97.20
47779;DHT22;33538;48.432;11.350;2023-02-11T01:59:27;-1.80;97.40
47779;DHT22;33538;48.432;11.350;2023-02-11T02:01:59;-1.80;97.80
47779;DHT22;33538;48.432;11.350;2023-02-11T02:04:28;-1.80;96.90
47779;DHT22;33538;48.432;11.350;2023-02-11T02:07:00;-1.80;97.10
47779;DHT22;33538;48.432;11.350;2023-02-11T02:09:35;-1.90;97.30
47779;DHT22;33538;48.432;11.350;2023-02-11T02:12:03;-1.90;97.10
47779;DHT22;33538;48.432;11.350;2023-02-11T02:14:30;-1.80;97.00
47779;DHT22;33538;48.432;11.350;2023-02-11T02:16:57;-1.90;97.30
47779;DHT22;33538;48.432;11.350;2023-02-11T02:19:49;-1.90;98.10
47779;DHT22;33538;48.432;11.350;2023-02-11T02:23:04;-1.80;97.90
47779;DHT22;33538;48.432;11.350;2023-02-11T02:26:09;-1.80;97.70
47779;DHT22;33538;48.432;11.350;2023-02-11T02:31:51;-2.00;99.10
47779;DHT22;33538;48.432;11.350;2023-02-11T02:34:29;-2.00;98.80
47779;DHT22;33538;48.432;11.350;2023-02-11T02:37:05;-1.90;98.70
47779;DHT22;33538;48.432;11.350;2023-02-11T02:39:34;-1.90;98.00
47779;DHT22;33538;48.432;11.350;2023-02-11T02:42:02;-1.90;97.60
47779;DHT22;33538;48.432;11.350;2023-02-11T02:44:31;-2.00;97.50
47779;DHT22;33538;48.432;11.350;2023-02-11T02:46:57;-2.00;97.40
47779;DHT22;33538;48.432;11.350;2023-02-11T02:49:26;-2.00;97.40
47779;DHT22;33538;48.432;11.350;2023-02-11T02:52:06;-2.00;97.30
47779;DHT22;33538;48.432;11.350;2023-02-11T02:54:52;-2.00;98.20
47779;DHT22;33538;48.432;11.350;2023-02-11T02:57:35;-2.00;98.90
47779;DHT22;33538;48.432;11.350;2023-02-11T03:00:13;-2.00;98.10
47779;DHT22;33538;48.432;11.350;2023-02-11T03:02:49;-2.00;98.20
47779;DHT22;33538;48.432;11.350;2023-02-11T03:05:24;-2.00;97.70
47779;DHT22;33538;48.432;11.350;2023-02-11T03:07:57;-2.00;97.90
47779;DHT22;33538;48.432;11.350;2023-02-11T03:10:28;-2.10;98.50
47779;DHT22;33538;48.432;11.350;2023-02-11T03:12:56;-2.00;98.10
47779;DHT22;33538;48.432;11.350;2023-02-11T03:15:25;-2.10;98.00
47779;DHT22;33538;48.432;11.350;2023-02-11T03:17:55;-2.20;99.10
47779;DHT22;33538;48.432;11.350;2023-02-11T03:20:26;-2.30;99.70
47779;DHT22;33538;48.432;11.350;2023-02-11T03:22:57;-2.20;99.10
47779;DHT22;33538;48.432;11.350;2023-02-11T03:25:28;-2.20;98.90
47779;DHT22;33538;48.432;11.350;2023-02-11T03:27:59;-2.10;98.90
47779;DHT22;33538;48.432;11.350;2023-02-11T03:30:33;-2.20;99.90
47779;DHT22;33538;48.432;11.350;2023-02-11T03:33:07;-2.20;99.90
47779;DHT22;33538;48.432;11.350;2023-02-11T03:35:42;-2.20;99.90
47779;DHT22;33538;48.432;11.350;2023-02-11T03:38:13;-2.10;99.90
47779;DHT22;33538;48.432;11.350;2023-02-11T03:40:42;-2.10;99.90
47779;DHT22;33538;48.432;11.350;2023-02-11T03:43:13;-2.10;99.90
47779;DHT22;33538;48.432;11.350;2023-02-11T03:45:42;-2.10;99.90
47779;DHT22;33538;48.432;11.350;2023-02-11T03:48:13;-2.00;99.90
47779;DHT22;33538;48.432;11.350;2023-02-11T03:50:42;-2.00;99.90
47779;DHT22;33538;48.432;11.350;2023-02-11T03:53:11;-2.00;99.90
47779;DHT22;33538;48.432;11.350;2023-02-11T03:55:39;-2.00;99.80
47779;DHT22;33538;48.432;11.350;2023-02-11T03:58:07;-2.10;99.90
47779;DHT22;33538;48.432;11.350;2023-02-11T04:00:36;-2.10;99.90
47779;DHT22;33538;48.432;11.350;2023-02-11T04:03:04;-2.00;99.90
47779;DHT22;33538;48.432;11.350;2023-02-11T04:05:31;-2.10;99.90
47779;DHT22;33538;48.432;11.350;2023-02-11T04:07:59;-2.10;99.90
47779;DHT22;33538;48.432;11.350;2023-02-11T04:10:25;-2.00;99.90
47779;DHT22;33538;48.432;11.350;2023-02-11T04:12:52;-2.00;99.90
47779;DHT22;33538;48.432;11.350;2023-02-11T04:15:19;-2.00;99.90
47779;DHT22;33538;48.432;11.350;2023-02-11T04:17:46;-2.00;99.90
47779;DHT22;33538;48.432;11.350;2023-02-11T04:20:12;-2.00;99.90
47779;DHT22;33538;48.432;11.350;2023-02-11T04:22:39;-2.00;99.90
47779;DHT22;33538;48.432;11.350;2023-02-11T04:25:08;-2.00;99.90
47779;DHT22;33538;48.432;11.350;2023-02-11T04:27:35;-2.00;99.90
47779;DHT22;33538;48.432;11.350;2023-02-11T04:30:03;-2.00;99.90
47779;DHT22;33538;48.432;11.350;2023-02-11T04:32:30;-2.00;99.90
47779;DHT22;33538;48.432;11.350;2023-02-11T04:34:57;-2.00;99.90
47779;DHT22;33538;48.432;11.350;2023-02-11T04:37:24;-2.00;99.90
47779;DHT22;33538;48.432;11.350;2023-02-11T04:39:50;-2.00;99.90
47779;DHT22;33538;48.432;11.350;2023-02-11T04:42:19;-2.00;99.90
47779;DHT22;33538;48.432;11.350;2023-02-11T04:44:45;-2.00;99.90
47779;DHT22;33538;48.432;11.350;2023-02-11T04:47:12;-1.90;99.90
47779;DHT22;33538;48.432;11.350;2023-02-11T04:49:39;-1.90;99.90
47779;DHT22;33538;48.432;11.350;2023-02-11T04:52:06;-1.90;99.90
47779;DHT22;33538;48.432;11.350;2023-02-11T04:54:33;-1.90;99.90
47779;DHT22;33538;48.432;11.350;2023-02-11T04:56:59;-1.90;99.90
47779;DHT22;33538;48.432;11.350;2023-02-11T04:59:28;-1.90;99.90
47779;DHT22;33538;48.432;11.350;2023-02-11T05:01:55;-1.90;99.90
47779;DHT22;33538;48.432;11.350;2023-02-11T05:04:21;-1.90;99.90
47779;DHT22;33538;48.432;11.350;2023-02-11T05:06:48;-1.90;99.90
47779;DHT22;33538;48.432;11.350;2023-02-11T05:09:15;-1.80;99.90
47779;DHT22;33538;48.432;11.350;2023-02-11T05:11:42;-1.80;99.90
47779;DHT22;33538;48.432;11.350;2023-02-11T05:14:09;-1.80;99.90
47779;DHT22;33538;48.432;11.350;2023-02-11T05:16:37;-1.80;99.90
47779;DHT22;33538;48.432;11.350;2023-02-11T05:19:04;-1.80;99.90
47779;DHT22;33538;48.432;11.350;2023-02-11T05:21:30;-1.80;99.90
47779;DHT22;33538;48.432;11.350;2023-02-11T05:23:57;-1.70;99.90
47779;DHT22;33538;48.432;11.350;2023-02-11T05:26:24;-1.70;99.90
47779;DHT22;33538;48.432;11.350;2023-02-11T05:28:51;-1.60;99.90
47779;DHT22;33538;48.432;11.350;2023-02-11T05:31:18;-1.60;99.00
47779;DHT22;33538;48.432;11.350;2023-02-11T05:33:46;-1.60;99.10
47779;DHT22;33538;48.432;11.350;2023-02-11T05:36:13;-1.60;99.20
47779;DHT22;33538;48.432;11.350;2023-02-11T05:38:40;-1.50;99.60
47779;DHT22;33538;48.432;11.350;2023-02-11T05:41:07;-1.50;99.10
47779;DHT22;33538;48.432;11.350;2023-02-11T05:43:33;-1.50;99.90
47779;DHT22;33538;48.432;11.350;2023-02-11T05:46:00;-1.50;99.80
47779;DHT22;33538;48.432;11.350;2023-02-11T05:48:27;-1.50;99.90
47779;DHT22;33538;48.432;11.350;2023-02-11T05:50:55;-1.50;98.80
47779;DHT22;33538;48.432;11.350;2023-02-11T05:53:22;-1.50;98.80
47779;DHT22;33538;48.432;11.350;2023-02-11T05:55:49;-1.40;98.10
47779;DHT22;33538;48.432;11.350;2023-02-11T05:58:16;-1.40;98.10
47779;DHT22;33538;48.432;11.350;2023-02-11T06:00:43;-1.40;99.30
47779;DHT22;33538;48.432;11.350;2023-02-11T06:03:10;-1.40;99.90
47779;DHT22;33538;48.432;11.350;2023-02-11T06:05:36;-1.40;99.90
47779;DHT22;33538;48.432;11.350;2023-02-11T06:08:05;-1.40;99.90
47779;DHT22;33538;48.432;11.350;2023-02-11T06:10:32;-1.40;99.90
47779;DHT22;33538;48.432;11.350;2023-02-11T06:12:58;-1.40;99.90
47779;DHT22;33538;48.432;11.350;2023-02-11T06:15:26;-1.40;99.90
47779;DHT22;33538;48.432;11.350;2023-02-11T06:17:53;-1.40;99.90
47779;DHT22;33538;48.432;11.350;2023-02-11T06:20:20;-1.40;99.90
47779;DHT22;33538;48.432;11.350;2023-02-11T06:22:46;-1.30;99.20
47779;DHT22;33538;48.432;11.350;2023-02-11T06:25:15;-1.30;99.20
47779;DHT22;33538;48.432;11.350;2023-02-11T06:27:41;-1.30;99.40
47779;DHT22;33538;48.432;11.350;2023-02-11T06:30:09;-1.20;99.70
47779;DHT22;33538;48.432;11.350;2023-02-11T06:32:36;-1.20;99.90
47779;DHT22;33538;48.432;11.350;2023-02-11T06:35:12;-1.30;99.90
47779;DHT22;33538;48.432;11.350;2023-02-11T06:37:39;-1.20;99.90
47779;DHT22;33538;48.432;11.350;2023-02-11T06:40:06;-1.20;99.70
47779;DHT22;33538;48.432;11.350;2023-02-11T06:42:34;-1.20;98.40
47779;DHT22;33538;48.432;11.350;2023-02-11T06:45:01;-1.20;99.20
47779;DHT22;33538;48.432;11.350;2023-02-11T06:47:28;-1.20;99.90
47779;DHT22;33538;48.432;11.350;2023-02-11T06:49:54;-1.30;99.20
47779;DHT22;33538;48.432;11.350;2023-02-11T06:52:21;-1.20;99.50
47779;DHT22;33538;48.432;11.350;2023-02-11T06:54:48;-1.20;98.80
47779;DHT22;33538;48.432;11.350;2023-02-11T06:57:15;-1.20;98.40
47779;DHT22;33538;48.432;11.350;2023-02-11T06:59:43;-1.10;97.90
47779;DHT22;33538;48.432;11.350;2023-02-11T07:02:09;-1.10;97.70
47779;DHT22;33538;48.432;11.350;2023-02-11T07:04:36;-1.10;98.80
47779;DHT22;33538;48.432;11.350;2023-02-11T07:07:03;-1.10;99.30
47779;DHT22;33538;48.432;11.350;2023-02-11T07:09:30;-1.10;98.50
47779;DHT22;33538;48.432;11.350;2023-02-11T07:11:56;-1.10;98.20
47779;DHT22;33538;48.432;11.350;2023-02-11T07:14:23;-1.00;97.90
47779;DHT22;33538;48.432;11.350;2023-02-11T07:16:51;-1.00;97.70
47779;DHT22;33538;48.432;11.350;2023-02-11T07:19:18;-1.00;97.60
47779;DHT22;33538;48.432;11.350;2023-02-11T07:21:45;-1.00;97.50
47779;DHT22;33538;48.432;11.350;2023-02-11T07:24:12;-1.00;97.40
47779;DHT22;33538;48.432;11.350;2023-02-11T07:26:39;-1.00;97.30
47779;DHT22;33538;48.432;11.350;2023-02-11T07:29:06;-1.00;97.20
47779;DHT22;33538;48.432;11.350;2023-02-11T07:31:32;-0.90;97.30
47779;DHT22;33538;48.432;11.350;2023-02-11T07:34:01;-0.90;97.20
47779;DHT22;33538;48.432;11.350;2023-02-11T07:36:29;-0.90;97.20
47779;DHT22;33538;48.432;11.350;2023-02-11T07:38:56;-0.90;97.30
47779;DHT22;33538;48.432;11.350;2023-02-11T07:41:24;-0.90;97.30
47779;DHT22;33538;48.432;11.350;2023-02-11T07:43:52;-0.90;97.50
47779;DHT22;33538;48.432;11.350;2023-02-11T07:46:20;-0.90;97.50
47779;DHT22;33538;48.432;11.350;2023-02-11T07:48:47;-0.90;97.80
47779;DHT22;33538;48.432;11.350;2023-02-11T07:51:17;-0.90;97.80
47779;DHT22;33538;48.432;11.350;2023-02-11T07:53:44;-0.80;97.90
47779;DHT22;33538;48.432;11.350;2023-02-11T07:56:12;-0.80;98.00
47779;DHT22;33538;48.432;11.350;2023-02-11T07:58:40;-0.80;98.10
47779;DHT22;33538;48.432;11.350;2023-02-11T08:01:09;-0.80;98.20
47779;DHT22;33538;48.432;11.350;2023-02-11T08:03:37;-0.80;98.10
47779;DHT22;33538;48.432;11.350;2023-02-11T08:06:06;-0.80;98.00
47779;DHT22;33538;48.432;11.350;2023-02-11T08:08:35;-0.70;98.10
47779;DHT22;33538;48.432;11.350;2023-02-11T08:11:05;-0.80;98.10
47779;DHT22;33538;48.432;11.350;2023-02-11T08:13:32;-0.70;98.30
47779;DHT22;33538;48.432;11.350;2023-02-11T08:15:59;-0.70;98.30
47779;DHT22;33538;48.432;11.350;2023-02-11T08:18:26;-0.70;98.30
47779;DHT22;33538;48.432;11.350;2023-02-11T08:20:53;-0.70;98.40
47779;DHT22;33538;48.432;11.350;2023-02-11T08:23:19;-0.70;98.50
47779;DHT22;33538;48.432;11.350;2023-02-11T08:25:47;-0.70;98.40
47779;DHT22;33538;48.432;11.350;2023-02-11T08:28:14;-0.70;98.50
47779;DHT22;33538;48.432;11.350;2023-02-11T08:30:41;-0.70;98.50
47779;DHT22;33538;48.432;11.350;2023-02-11T08:33:08;-0.70;98.60
47779;DHT22;33538;48.432;11.350;2023-02-11T08:35:35;-0.70;98.60
47779;DHT22;33538;48.432;11.350;2023-02-11T08:38:01;-0.70;98.70
47779;DHT22;33538;48.432;11.350;2023-02-11T08:40:28;-0.70;98.60
47779;DHT22;33538;48.432;11.350;2023-02-11T08:42:56;-0.60;98.60
47779;DHT22;33538;48.432;11.350;2023-02-11T08:45:23;-0.60;98.70
47779;DHT22;33538;48.432;11.350;2023-02-11T08:47:50;-0.60;98.70
47779;DHT22;33538;48.432;11.350;2023-02-11T08:50:16;-0.60;98.80
47779;DHT22;33538;48.432;11.350;2023-02-11T08:52:43;-0.60;98.90
47779;DHT22;33538;48.432;11.350;2023-02-11T08:55:10;-0.60;98.80
47779;DHT22;33538;48.432;11.350;2023-02-11T08:57:37;-0.60;98.90
47779;DHT22;33538;48.432;11.350;2023-02-11T09:00:06;-0.60;98.90
47779;DHT22;33538;48.432;11.350;2023-02-11T09:02:33;-0.60;99.00
47779;DHT22;33538;48.432;11.350;2023-02-11T09:05:00;-0.60;98.90
47779;DHT22;33538;48.432;11.350;2023-02-11T09:07:27;-0.50;99.10
47779;DHT22;33538;48.432;11.350;2023-02-11T09:09:53;-0.50;99.20
47779;DHT22;33538;48.432;11.350;2023-02-11T09:12:20;-0.50;99.20
47779;DHT22;33538;48.432;11.350;2023-02-11T09:14:47;-0.50;99.30
47779;DHT22;33538;48.432;11.350;2023-02-11T09:17:15;-0.50;99.40
47779;DHT22;33538;48.432;11.350;2023-02-11T09:19:42;-0.50;99.30
47779;DHT22;33538;48.432;11.350;2023-02-11T09:22:08;-0.50;99.30
47779;DHT22;33538;48.432;11.350;2023-02-11T09:24:35;-0.40;99.40
47779;DHT22;33538;48.432;11.350;2023-02-11T09:27:02;-0.40;99.40
47779;DHT22;33538;48.432;11.350;2023-02-11T09:29:29;-0.40;99.40
47779;DHT22;33538;48.432;11.350;2023-02-11T09:31:55;-0.40;99.40
47779;DHT22;33538;48.432;11.350;2023-02-11T09:34:24;-0.40;99.40
47779;DHT22;33538;48.432;11.350;2023-02-11T09:36:51;-0.30;99.30
47779;DHT22;33538;48.432;11.350;2023-02-11T09:39:18;-0.30;99.40
47779;DHT22;33538;48.432;11.350;2023-02-11T09:44:45;-0.30;99.50
47779;DHT22;33538;48.432;11.350;2023-02-11T09:47:22;-0.30;99.50
47779;DHT22;33538;48.432;11.350;2023-02-11T09:49:53;-0.20;99.30
47779;DHT22;33538;48.432;11.350;2023-02-11T09:52:30;-0.20;99.60
47779;DHT22;33538;48.432;11.350;2023-02-11T09:55:00;-0.20;99.60
47779;DHT22;33538;48.432;11.350;2023-02-11T09:57:31;-0.20;99.50
47779;DHT22;33538;48.432;11.350;2023-02-11T09:59:59;-0.20;99.50
47779;DHT22;33538;48.432;11.350;2023-02-11T10:02:31;-0.20;99.60
47779;DHT22;33538;48.432;11.350;2023-02-11T10:05:29;-0.10;99.50
47779;DHT22;33538;48.432;11.350;2023-02-11T10:08:06;-0.10;99.60
47779;DHT22;33538;48.432;11.350;2023-02-11T10:10:46;-0.10;99.90
47779;DHT22;33538;48.432;11.350;2023-02-11T10:13:35;-0.10;99.80
47779;DHT22;33538;48.432;11.350;2023-02-11T10:16:17;-0.10;99.80
47779;DHT22;33538;48.432;11.350;2023-02-11T10:19:00;-0.10;99.90
47779;DHT22;33538;48.432;11.350;2023-02-11T10:21:36;-0.10;99.90
47779;DHT22;33538;48.432;11.350;2023-02-11T10:24:10;0.00;99.90
47779;DHT22;33538;48.432;11.350;2023-02-11T10:26:38;0.00;99.90
47779;DHT22;33538;48.432;11.350;2023-02-11T10:29:14;0.00;99.90
47779;DHT22;33538;48.432;11.350;2023-02-11T10:31:45;0.00;99.90
47779;DHT22;33538;48.432;11.350;2023-02-11T10:34:14;0.00;99.90
47779;DHT22;33538;48.432;11.350;2023-02-11T10:36:43;0.10;99.90
47779;DHT22;33538;48.432;11.350;2023-02-11T10:39:12;0.20;99.90
47779;DHT22;33538;48.432;11.350;2023-02-11T10:41:42;0.20;99.90
47779;DHT22;33538;48.432;11.350;2023-02-11T10:44:20;0.20;99.90
47779;DHT22;33538;48.432;11.350;2023-02-11T10:46:48;0.20;99.90
47779;DHT22;33538;48.432;11.350;2023-02-11T10:49:35;0.20;99.90
47779;DHT22;33538;48.432;11.350;2023-02-11T10:52:14;0.30;99.90
47779;DHT22;33538;48.432;11.350;2023-02-11T10:54:41;0.30;99.90
47779;DHT22;33538;48.432;11.350;2023-02-11T10:57:17;0.30;99.90
47779;DHT22;33538;48.432;11.350;2023-02-11T10:59:44;0.40;99.90
47779;DHT22;33538;48.432;11.350;2023-02-11T11:02:20;0.30;99.90
47779;DHT22;33538;48.432;11.350;2023-02-11T11:04:48;0.40;99.90
47779;DHT22;33538;48.432;11.350;2023-02-11T11:07:24;0.40;99.90
47779;DHT22;33538;48.432;11.350;2023-02-11T11:09:53;0.40;99.90
47779;DHT22;33538;48.432;11.350;2023-02-11T11:12:25;0.50;99.90
47779;DHT22;33538;48.432;11.350;2023-02-11T11:14:54;0.50;99.90
47779;DHT22;33538;48.432;11.350;2023-02-11T11:17:21;0.50;99.90
47779;DHT22;33538;48.432;11.350;2023-02-11T11:19:48;0.50;99.90
47779;DHT22;33538;48.432;11.350;2023-02-11T11:22:20;0.50;99.90
47779;DHT22;33538;48.432;11.350;2023-02-11T11:24:48;0.50;99.90
47779;DHT22;33538;48.432;11.350;2023-02-11T11:27:18;0.60;99.90
47779;DHT22;33538;48.432;11.350;2023-02-11T11:29:47;0.60;99.90
47779;DHT22;33538;48.432;11.350;2023-02-11T11:32:19;0.60;99.90
47779;DHT22;33538;48.432;11.350;2023-02-11T11:34:49;0.60;99.90
47779;DHT22;33538;48.432;11.350;2023-02-11T11:37:21;0.70;99.90
47779;DHT22;33538;48.432;11.350;2023-02-11T11:39:55;0.70;99.90
47779;DHT22;33538;48.432;11.350;2023-02-11T11:42:27;0.70;99.90
47779;DHT22;33538;48.432;11.350;2023-02-11T11:44:58;0.70;99.90
47779;DHT22;33538;48.432;11.350;2023-02-11T11:47:30;0.80;99.90
47779;DHT22;33538;48.432;11.350;2023-02-11T11:50:14;0.80;99.90
47779;DHT22;33538;48.432;11.350;2023-02-11T11:52:52;0.90;99.90
47779;DHT22;33538;48.432;11.350;2023-02-11T11:55:24;0.90;99.90
47779;DHT22;33538;48.432;11.350;2023-02-11T11:57:52;0.90;99.90
47779;DHT22;33538;48.432;11.350;2023-02-11T12:00:22;1.00;99.90
47779;DHT22;33538;48.432;11.350;2023-02-11T12:03:17;1.00;99.90
47779;DHT22;33538;48.432;11.350;2023-02-11T12:05:57;1.00;99.90
47779;DHT22;33538;48.432;11.350;2023-02-11T12:08:37;1.10;99.90
47779;DHT22;33538;48.432;11.350;2023-02-11T12:11:14;1.10;99.90
47779;DHT22;33538;48.432;11.350;2023-02-11T12:13:51;1.10;99.90
47779;DHT22;33538;48.432;11.350;2023-02-11T12:16:28;1.10;99.90
47779;DHT22;33538;48.432;11.350;2023-02-11T12:19:30;1.10;99.90
47779;DHT22;33538;48.432;11.350;2023-02-11T12:22:08;1.20;99.90
47779;DHT22;33538;48.432;11.350;2023-02-11T12:24:55;1.20;99.90
47779;DHT22;33538;48.432;11.350;2023-02-11T12:27:39;1.20;99.90
47779;DHT22;33538;48.432;11.350;2023-02-11T12:30:17;1.20;99.90
47779;DHT22;33538;48.432;11.350;2023-02-11T12:32:50;1.20;99.90
47779;DHT22;33538;48.432;11.350;2023-02-11T12:35:38;1.30;99.90
47779;DHT22;33538;48.432;11.350;2023-02-11T12:38:31;1.20;99.90
47779;DHT22;33538;48.432;11.350;2023-02-11T12:41:16;1.30;99.90
47779;DHT22;33538;48.432;11.350;2023-02-11T12:43:45;1.30;99.90
47779;DHT22;33538;48.432;11.350;2023-02-11T12:46:34;1.40;99.90
47779;DHT22;33538;48.432;11.350;2023-02-11T12:49:18;1.40;99.90
47779;DHT22;33538;48.432;11.350;2023-02-11T12:52:03;1.40;99.90
47779;DHT22;33538;48.432;11.350;2023-02-11T12:54:36;1.50;99.90
47779;DHT22;33538;48.432;11.350;2023-02-11T12:57:10;1.50;99.90
47779;DHT22;33538;48.432;11.350;2023-02-11T12:59:46;1.50;99.90
47779;DHT22;33538;48.432;11.350;2023-02-11T13:02:23;1.60;99.90
47779;DHT22;33538;48.432;11.350;2023-02-11T13:04:55;1.60;99.90
47779;DHT22;33538;48.432;11.350;2023-02-11T13:07:27;1.60;99.90
47779;DHT22;33538;48.432;11.350;2023-02-11T13:09:58;1.70;99.90
47779;DHT22;33538;48.432;11.350;2023-02-11T13:12:28;1.70;99.90
47779;DHT22;33538;48.432;11.350;2023-02-11T13:15:02;1.70;99.90
47779;DHT22;33538;48.432;11.350;2023-02-11T13:17:31;1.70;99.90
47779;DHT22;33538;48.432;11.350;2023-02-11T13:20:06;1.80;99.90
47779;DHT22;33538;48.432;11.350;2023-02-11T13:22:45;1.70;99.90
47779;DHT22;33538;48.432;11.350;2023-02-11T13:25:20;1.80;99.90
47779;DHT22;33538;48.432;11.350;2023-02-11T13:27:53;1.80;99.90
47779;DHT22;33538;48.432;11.350;2023-02-11T13:30:26;1.80;99.90
47779;DHT22;33538;48.432;11.350;2023-02-11T13:36:10;1.80;99.90
47779;DHT22;33538;48.432;11.350;2023-02-11T13:38:37;1.80;99.90
47779;DHT22;33538;48.432;11.350;2023-02-11T13:41:05;1.80;99.90
47779;DHT22;33538;48.432;11.350;2023-02-11T13:43:34;1.80;99.90
47779;DHT22;33538;48.432;11.350;2023-02-11T13:46:04;1.80;99.90
47779;DHT22;33538;48.432;11.350;2023-02-11T13:48:35;1.80;99.90
47779;DHT22;33538;48.432;11.350;2023-02-11T13:51:04;1.90;99.90
47779;DHT22;33538;48.432;11.350;2023-02-11T13:53:44;1.90;99.90
47779;DHT22;33538;48.432;11.350;2023-02-11T13:56:29;1.90;99.90
47779;DHT22;33538;48.432;11.350;2023-02-11T13:58:56;1.90;99.90
47779;DHT22;33538;48.432;11.350;2023-02-11T14:02:01;1.90;99.90
47779;DHT22;33538;48.432;11.350;2023-02-11T14:04:28;1.90;99.90
47779;DHT22;33538;48.432;11.350;2023-02-11T14:07:26;1.90;99.90
47779;DHT22;33538;48.432;11.350;2023-02-11T14:09:53;1.90;99.90
47779;DHT22;33538;48.432;11.350;2023-02-11T14:12:37;1.90;99.90
47779;DHT22;33538;48.432;11.350;2023-02-11T14:15:26;1.90;99.90
47779;DHT22;33538;48.432;11.350;2023-02-11T14:17:54;1.90;99.90
47779;DHT22;33538;48.432;11.350;2023-02-11T14:20:40;1.90;99.90
47779;DHT22;33538;48.432;11.350;2023-02-11T14:23:21;1.90;99.90
47779;DHT22;33538;48.432;11.350;2023-02-11T14:26:05;1.90;99.90
47779;DHT22;33538;48.432;11.350;2023-02-11T14:28:39;2.00;99.90
47779;DHT22;33538;48.432;11.350;2023-02-11T14:31:10;1.90;99.90
47779;DHT22;33538;48.432;11.350;2023-02-11T14:37:01;2.00;99.90
47779;DHT22;33538;48.432;11.350;2023-02-11T14:39:47;2.00;99.90
47779;DHT22;33538;48.432;11.350;2023-02-11T14:42:19;2.00;99.90
47779;DHT22;33538;48.432;11.350;2023-02-11T14:44:48;2.00;99.90
47779;DHT22;33538;48.432;11.350;2023-02-11T14:47:18;2.10;99.90
47779;DHT22;33538;48.432;11.350;2023-02-11T14:49:47;2.00;99.90
47779;DHT22;33538;48.432;11.350;2023-02-11T14:52:22;2.10;99.90
47779;DHT22;33538;48.432;11.350;2023-02-11T14:54:50;2.10;99.90
47779;DHT22;33538;48.432;11.350;2023-02-11T14:57:19;2.10;99.90
47779;DHT22;33538;48.432;11.350;2023-02-11T14:59:57;2.10;99.90
47779;DHT22;33538;48.432;11.350;2023-02-11T15:02:29;2.10;99.90
47779;DHT22;33538;48.432;11.350;2023-02-11T15:05:16;2.10;99.90
47779;DHT22;33538;48.432;11.350;2023-02-11T15:07:45;2.10;99.90
47779;DHT22;33538;48.432;11.350;2023-02-11T15:10:18;2.10;99.90
47779;DHT22;33538;48.432;11.350;2023-02-11T15:12:46;2.10;99.90
47779;DHT22;33538;48.432;11.350;2023-02-11T15:15:15;2.10;99.90
47779;DHT22;33538;48.432;11.350;2023-02-11T15:17:42;2.20;99.90
47779;DHT22;33538;48.432;11.350;2023-02-11T15:20:21;2.20;99.90
47779;DHT22;33538;48.432;11.350;2023-02-11T15:22:53;2.20;99.90
47779;DHT22;33538;48.432;11.350;2023-02-11T15:25:21;2.20;99.90
47779;DHT22;33538;48.432;11.350;2023-02-11T15:27:49;2.20;99.90
47779;DHT22;33538;48.432;11.350;2023-02-11T15:30:25;2.20;99.90
47779;DHT22;33538;48.432;11.350;2023-02-11T15:32:54;2.20;99.90
47779;DHT22;33538;48.432;11.350;2023-02-11T15:35:22;2.20;99.90
47779;DHT22;33538;48.432;11.350;2023-02-11T15:37:49;2.20;99.90
47779;DHT22;33538;48.432;11.350;2023-02-11T15:40:18;2.20;99.90
47779;DHT22;33538;48.432;11.350;2023-02-11T15:42:52;2.20;99.90
47779;DHT22;33538;48.432;11.350;2023-02-11T15:45:25;2.20;99.90
47779;DHT22;33538;48.432;11.350;2023-02-11T15:47:56;2.30;99.90
47779;DHT22;33538;48.432;11.350;2023-02-11T15:50:27;2.30;99.90
47779;DHT22;33538;48.432;11.350;2023-02-11T15:52:56;2.30;99.90
47779;DHT22;33538;48.432;11.350;2023-02-11T15:55:24;2.30;99.90